createdAt,value
2018-10-17T00:02:54.576Z,67.05
2018-10-17T00:07:57.864Z,67.33
2018-10-17T00:13:01.194Z,67.95
2018-10-17T00:18:04.659Z,67.43
2018-10-17T00:23:08.126Z,67.63
2018-10-17T00:28:11.419Z,68.19
2018-10-17T00:33:14.711Z,68.36
2018-10-17T00:38:18.023Z,68.70
2018-10-17T00:43:21.325Z,69.00
2018-10-17T00:48:24.643Z,69.15
2018-10-17T00:53:27.985Z,69.93
2018-10-17T00:58:31.314Z,70.47
2018-10-17T01:03:34.691Z,70.87
2018-10-17T01:08:38.046Z,71.02
2018-10-17T01:13:41.411Z,70.82
2018-10-17T01:18:44.683Z,71.86
2018-10-17T01:23:47.991Z,71.84
2018-10-17T01:28:51.384Z,72.02
2018-10-17T01:33:54.703Z,71.56
2018-10-17T01:38:58.031Z,71.65
2018-10-17T01:44:01.326Z,71.49
2018-10-17T01:49:04.742Z,70.58
2018-10-17T01:54:08.125Z,69.69
2018-10-17T01:59:11.620Z,69.94
2018-10-17T02:04:14.774Z,70.40
2018-10-17T02:09:18.079Z,70.87
2018-10-17T02:14:21.407Z,71.04
2018-10-17T02:19:24.727Z,71.26
2018-10-17T02:24:28.067Z,71.39
2018-10-17T02:29:31.443Z,71.96
2018-10-17T02:34:38.935Z,71.42
2018-10-17T02:39:42.291Z,71.97
2018-10-17T02:44:45.603Z,72.37
2018-10-17T02:49:48.928Z,72.81
2018-10-17T02:54:52.551Z,72.63
2018-10-17T02:59:55.873Z,72.50
2018-10-17T03:04:59.292Z,72.11
2018-10-17T03:10:02.657Z,72.03
2018-10-17T03:15:07.257Z,72.46
2018-10-17T03:20:11.331Z,72.37
2018-10-17T03:25:14.677Z,72.25
2018-10-17T03:30:17.952Z,72.47
2018-10-17T03:35:21.405Z,72.49
2018-10-17T03:40:24.668Z,72.52
2018-10-17T03:45:27.965Z,72.85
2018-10-17T03:50:31.265Z,72.59
2018-10-17T03:55:34.596Z,72.57
2018-10-17T04:00:37.997Z,73.17
2018-10-17T04:05:41.313Z,72.35
2018-10-17T04:10:44.635Z,72.32
2018-10-17T04:15:47.959Z,72.53
2018-10-17T04:20:51.248Z,72.17
2018-10-17T04:25:54.600Z,72.12
2018-10-17T04:30:57.962Z,71.82
2018-10-17T04:36:01.295Z,71.62
2018-10-17T04:41:04.620Z,71.67
2018-10-17T04:46:07.948Z,71.20
2018-10-17T04:51:11.297Z,70.62
2018-10-17T04:56:14.627Z,70.86
2018-10-17T05:01:17.940Z,70.70
2018-10-17T05:06:21.223Z,70.95
2018-10-17T05:11:24.520Z,70.82
2018-10-17T05:16:28.007Z,71.14
2018-10-17T05:21:31.311Z,71.27
2018-10-17T05:26:34.646Z,71.47
2018-10-17T05:31:37.927Z,71.72
2018-10-17T05:36:41.228Z,71.54
2018-10-17T05:41:44.584Z,71.35
2018-10-17T05:46:47.886Z,71.60
2018-10-17T05:51:51.312Z,71.09
2018-10-17T05:56:54.619Z,71.95
2018-10-17T06:01:59.170Z,72.51
2018-10-17T06:07:03.429Z,72.64
2018-10-17T06:12:06.824Z,73.47
2018-10-17T06:17:10.146Z,73.00
2018-10-17T06:22:13.412Z,73.21
2018-10-17T06:27:16.692Z,73.27
2018-10-17T06:32:19.978Z,73.23
2018-10-17T06:37:23.264Z,73.58
2018-10-17T06:42:26.589Z,73.22
2018-10-17T06:47:29.864Z,73.67
2018-10-17T06:52:33.175Z,73.71
2018-10-17T06:57:36.604Z,73.49
2018-10-17T07:02:39.904Z,73.59
2018-10-17T07:07:43.241Z,73.90
2018-10-17T07:12:46.556Z,73.54
2018-10-17T07:17:49.873Z,73.74
2018-10-17T07:22:53.196Z,73.56
2018-10-17T07:27:56.536Z,73.67
2018-10-17T07:32:59.832Z,73.81
2018-10-17T07:38:03.152Z,73.27
2018-10-17T07:43:06.606Z,73.02
2018-10-17T07:48:10.074Z,73.18
2018-10-17T07:53:13.827Z,73.05
2018-10-17T07:58:17.406Z,72.54
2018-10-17T08:03:20.993Z,72.64
2018-10-17T08:08:24.481Z,71.34
2018-10-17T08:13:27.856Z,71.92
2018-10-17T08:18:31.587Z,71.40
2018-10-17T08:23:35.197Z,71.05
2018-10-17T08:28:38.556Z,71.27
2018-10-17T08:33:41.949Z,71.44
2018-10-17T08:38:47.629Z,71.17
2018-10-17T08:43:51.028Z,71.16
2018-10-17T08:48:54.359Z,71.35
2018-10-17T08:53:57.677Z,71.35
2018-10-17T08:59:01.023Z,71.86
2018-10-17T09:04:04.411Z,71.98
2018-10-17T09:09:13.318Z,71.58
2018-10-17T09:14:16.735Z,71.56
2018-10-17T09:19:20.047Z,71.59
2018-10-17T09:24:23.879Z,71.91
2018-10-17T09:29:27.737Z,71.11
2018-10-17T09:34:31.843Z,70.43
2018-10-17T09:39:35.833Z,70.32
2018-10-17T09:44:40.042Z,69.66
2018-10-17T09:49:45.095Z,70.11
2018-10-17T09:54:49.046Z,69.29
2018-10-17T09:59:52.491Z,69.73
2018-10-17T10:04:56.009Z,68.83
2018-10-17T10:09:59.602Z,68.79
2018-10-17T10:15:03.427Z,68.16
2018-10-17T10:20:06.975Z,67.05
2018-10-17T10:25:10.372Z,67.66
2018-10-17T10:30:13.851Z,68.05
2018-10-17T10:35:17.150Z,66.92
2018-10-17T10:40:20.571Z,66.19
2018-10-17T10:45:23.936Z,65.72
2018-10-17T10:50:27.521Z,64.58
2018-10-17T10:55:31.135Z,62.01
2018-10-17T11:00:34.815Z,61.68
2018-10-17T11:05:38.408Z,60.99
2018-10-17T11:10:41.593Z,59.58
2018-10-17T11:15:44.919Z,50.54
2018-10-17T11:20:48.285Z,40.78
2018-10-17T11:25:51.998Z,37.15
2018-10-17T11:30:55.543Z,34.62
2018-10-17T11:35:59.132Z,34.55
2018-10-17T11:41:02.696Z,34.35
2018-10-17T11:46:06.220Z,32.55
2018-10-17T11:51:09.797Z,30.70
2018-10-17T11:56:13.246Z,30.41
2018-10-17T12:01:16.781Z,30.04
2018-10-17T12:06:20.199Z,28.66
2018-10-17T12:11:23.532Z,29.30
2018-10-17T12:16:26.835Z,28.51
2018-10-17T12:21:30.224Z,27.68
2018-10-17T12:26:33.649Z,26.75
2018-10-17T12:31:37.025Z,25.54
2018-10-17T12:36:40.378Z,25.39
2018-10-17T12:41:43.837Z,27.42
2018-10-17T12:46:47.075Z,27.25
2018-10-17T12:51:50.399Z,25.55
2018-10-17T12:56:53.684Z,24.51
2018-10-17T13:01:57.320Z,23.96
2018-10-17T13:07:00.753Z,24.69
2018-10-17T13:12:04.073Z,26.44
2018-10-17T13:17:07.438Z,27.96
2018-10-17T13:22:10.709Z,33.32
2018-10-17T13:27:14.038Z,36.66
2018-10-17T13:32:17.324Z,39.44
2018-10-17T13:37:20.718Z,36.46
2018-10-17T13:42:23.955Z,34.23
2018-10-17T13:47:27.287Z,38.69
2018-10-17T13:52:30.612Z,41.26
2018-10-17T13:57:34.014Z,43.19
2018-10-17T14:02:37.292Z,44.63
2018-10-17T14:07:40.583Z,44.89
2018-10-17T14:12:43.896Z,46.01
2018-10-17T14:17:47.188Z,46.07
2018-10-17T14:22:50.551Z,46.76
2018-10-17T14:27:53.832Z,46.71
2018-10-17T14:32:57.315Z,47.36
2018-10-17T14:38:00.664Z,47.84
2018-10-17T14:43:03.929Z,47.79
2018-10-17T14:48:07.514Z,48.78
2018-10-17T14:53:11.282Z,47.78
2018-10-17T14:58:14.662Z,48.72
2018-10-17T15:03:18.099Z,49.75
2018-10-17T15:08:21.426Z,49.90
2018-10-17T15:13:24.853Z,50.58
2018-10-17T15:18:28.406Z,50.92
2018-10-17T15:23:31.817Z,50.93
2018-10-17T15:28:35.214Z,51.49
2018-10-17T15:33:38.974Z,51.71
2018-10-17T15:38:42.378Z,52.16
2018-10-17T15:43:46.195Z,53.16
2018-10-17T15:48:49.734Z,53.12
2018-10-17T15:53:53.247Z,54.16
2018-10-17T15:58:56.596Z,54.88
2018-10-17T16:03:59.940Z,55.98
2018-10-17T16:09:03.307Z,56.30
2018-10-17T16:14:06.721Z,56.85
2018-10-17T16:19:10.076Z,57.35
2018-10-17T16:24:13.464Z,57.50
2018-10-17T16:29:16.754Z,58.13
2018-10-17T16:34:20.285Z,58.61
2018-10-17T16:39:23.668Z,59.27
2018-10-17T16:44:27.023Z,59.92
2018-10-17T16:49:30.351Z,59.96
2018-10-17T16:54:33.727Z,60.06
2018-10-17T16:59:37.044Z,59.74
2018-10-17T17:04:40.413Z,59.89
2018-10-17T17:09:43.745Z,60.18
2018-10-17T17:14:47.133Z,60.15
2018-10-17T17:19:50.458Z,60.10
2018-10-17T17:24:53.841Z,59.41
2018-10-17T17:29:57.171Z,59.67
2018-10-17T17:35:00.762Z,59.54
2018-10-17T17:40:04.384Z,59.93
2018-10-17T17:45:08.216Z,59.78
2018-10-17T17:50:11.737Z,60.29
2018-10-17T17:55:15.027Z,60.75
2018-10-17T18:00:18.338Z,60.70
2018-10-17T18:05:21.851Z,60.70
2018-10-17T18:10:25.177Z,61.00
2018-10-17T18:15:28.477Z,61.35
2018-10-17T18:20:31.782Z,61.61
2018-10-17T18:25:35.206Z,61.75
2018-10-17T18:30:38.513Z,61.59
2018-10-17T18:35:41.842Z,61.28
2018-10-17T18:40:45.267Z,61.58
2018-10-17T18:45:48.652Z,61.12
2018-10-17T18:50:51.997Z,61.92
2018-10-17T18:55:55.342Z,62.32
2018-10-17T19:00:58.665Z,61.89
2018-10-17T19:06:01.961Z,61.96
2018-10-17T19:11:05.514Z,62.14
2018-10-17T19:16:08.943Z,62.30
2018-10-17T19:21:12.290Z,63.05
2018-10-17T19:26:15.539Z,63.58
2018-10-17T19:31:18.859Z,64.06
2018-10-17T19:36:22.154Z,63.55
2018-10-17T19:41:25.451Z,62.98
2018-10-17T19:46:28.937Z,62.93
2018-10-17T19:51:32.320Z,62.96
2018-10-17T19:56:35.704Z,63.16
2018-10-17T20:01:39.151Z,62.95
2018-10-17T20:06:42.437Z,62.76
2018-10-17T20:11:45.847Z,63.45
2018-10-17T20:16:49.147Z,63.99
2018-10-17T20:21:52.482Z,63.43
2018-10-17T20:26:55.973Z,63.09
2018-10-17T20:31:59.309Z,63.60
2018-10-17T20:37:02.728Z,63.07
2018-10-17T20:42:06.435Z,63.72
2018-10-17T20:47:09.790Z,63.89
2018-10-17T20:52:13.192Z,63.79
2018-10-17T20:57:16.561Z,63.52
2018-10-17T21:02:19.900Z,64.19
2018-10-17T21:07:23.312Z,64.41
2018-10-17T21:12:26.661Z,63.99
2018-10-17T21:17:29.961Z,64.06
2018-10-17T21:22:33.253Z,63.42
2018-10-17T21:27:36.525Z,63.67
2018-10-17T21:32:39.845Z,63.27
2018-10-17T21:37:43.190Z,63.67
2018-10-17T21:42:46.467Z,63.66
2018-10-17T21:47:49.770Z,63.55
2018-10-17T21:52:53.078Z,64.38
2018-10-17T21:57:56.361Z,64.46
2018-10-17T22:02:59.671Z,65.01
2018-10-17T22:08:03.014Z,64.90
2018-10-17T22:13:06.356Z,65.18
2018-10-17T22:18:09.654Z,65.19
2018-10-17T22:23:12.955Z,65.13
2018-10-17T22:28:16.296Z,64.49
2018-10-17T22:33:19.616Z,63.57
2018-10-17T22:38:22.941Z,64.43
2018-10-17T22:43:26.415Z,64.95
2018-10-17T22:48:29.809Z,64.79
2018-10-17T22:53:33.123Z,64.87
2018-10-17T22:58:36.420Z,65.24
2018-10-17T23:03:39.736Z,65.38
2018-10-17T23:08:43.059Z,64.77
2018-10-17T23:19:37.064Z,65.15
2018-10-17T23:24:40.392Z,65.68
2018-10-17T23:29:43.697Z,66.05
2018-10-17T23:34:46.992Z,65.93
2018-10-17T23:39:50.301Z,65.36
2018-10-17T23:44:53.611Z,64.79
2018-10-17T23:49:56.981Z,64.94
2018-10-17T23:55:00.249Z,65.11
